LFMP 181530Z AUTO 29018G31KT CAVOK 27/12 Q1013 NOSIG

ElémentsDécodage
LFMP Station météo située sur l'aérodrome de PERPIGNAN Rivesaltes
181530Z émis le 18 du mois à 15h30 UTC
AUTO Bulletin édité par un automate
29018G31KT vent du 290°, moyenne: 18 noeuds, avec rafales à 31 noeuds
CAVOK Ceiling And Visibility OK
- Visibilité de 10 Km ou plus
- Pas de nuage au-dessous de 1500m ou au-dessous de l'altitude minimale du secteur la plus élevée (si>1500m) et absence de CB
- pas de temps présent significatif
27/12 température 27°C, point de rosée 12°C
 soit une humidité relative de 39%
Q1013 la pression au niveau de la mer (QNH) est de 1013 hPa
NOSIG Pas de changement significatif prévu au cours des deux heures suivant l'heure de l'observation